sensor_id;sensor_type;location;lat;lon;timestamp;temperature;humidity
8103;DHT22;4094;49.948;11.574;2022-10-03T00:00:28;14.60;77.50
8103;DHT22;4094;49.948;11.574;2022-10-03T00:06:02;14.50;77.40
8103;DHT22;4094;49.948;11.574;2022-10-03T00:08:53;14.50;77.30
8103;DHT22;4094;49.948;11.574;2022-10-03T00:11:35;14.50;77.30
8103;DHT22;4094;49.948;11.574;2022-10-03T00:14:15;14.40;77.30
8103;DHT22;4094;49.948;11.574;2022-10-03T00:16:51;14.40;77.30
8103;DHT22;4094;49.948;11.574;2022-10-03T00:19:28;14.30;77.30
8103;DHT22;4094;49.948;11.574;2022-10-03T00:22:09;14.30;77.20
8103;DHT22;4094;49.948;11.574;2022-10-03T00:24:55;14.30;77.10
8103;DHT22;4094;49.948;11.574;2022-10-03T00:27:32;14.20;77.10
8103;DHT22;4094;49.948;11.574;2022-10-03T00:30:13;14.20;77.00
8103;DHT22;4094;49.948;11.574;2022-10-03T00:33:02;14.20;77.00
8103;DHT22;4094;49.948;11.574;2022-10-03T00:35:41;14.10;76.90
8103;DHT22;4094;49.948;11.574;2022-10-03T00:38:27;14.10;76.90
8103;DHT22;4094;49.948;11.574;2022-10-03T00:41:27;14.10;76.90
8103;DHT22;4094;49.948;11.574;2022-10-03T00:50:41;14.00;76.50
8103;DHT22;4094;49.948;11.574;2022-10-03T00:53:44;13.90;76.30
8103;DHT22;4094;49.948;11.574;2022-10-03T00:56:28;13.90;76.20
8103;DHT22;4094;49.948;11.574;2022-10-03T00:59:24;13.90;76.10
8103;DHT22;4094;49.948;11.574;2022-10-03T01:01:55;13.80;76.00
8103;DHT22;4094;49.948;11.574;2022-10-03T01:04:39;13.80;76.20
8103;DHT22;4094;49.948;11.574;2022-10-03T01:07:23;13.80;76.30
8103;DHT22;4094;49.948;11.574;2022-10-03T01:10:06;13.70;76.20
8103;DHT22;4094;49.948;11.574;2022-10-03T01:12:56;13.70;76.20
8103;DHT22;4094;49.948;11.574;2022-10-03T01:15:40;13.70;76.20
8103;DHT22;4094;49.948;11.574;2022-10-03T01:18:22;13.60;75.90
8103;DHT22;4094;49.948;11.574;2022-10-03T01:21:01;13.60;75.80
8103;DHT22;4094;49.948;11.574;2022-10-03T01:24:03;13.60;75.70
8103;DHT22;4094;49.948;11.574;2022-10-03T01:26:53;13.50;75.70
8103;DHT22;4094;49.948;11.574;2022-10-03T01:32:33;13.50;75.80
8103;DHT22;4094;49.948;11.574;2022-10-03T01:38:13;13.40;75.60
8103;DHT22;4094;49.948;11.574;2022-10-03T01:40:49;13.40;75.80
8103;DHT22;4094;49.948;11.574;2022-10-03T01:43:29;13.30;75.80
8103;DHT22;4094;49.948;11.574;2022-10-03T01:46:13;13.30;76.00
8103;DHT22;4094;49.948;11.574;2022-10-03T01:48:50;13.30;76.10
8103;DHT22;4094;49.948;11.574;2022-10-03T01:51:25;13.30;76.20
8103;DHT22;4094;49.948;11.574;2022-10-03T01:54:05;13.30;76.30
8103;DHT22;4094;49.948;11.574;2022-10-03T01:56:42;13.30;76.40
8103;DHT22;4094;49.948;11.574;2022-10-03T01:59:18;13.30;76.40
8103;DHT22;4094;49.948;11.574;2022-10-03T02:01:56;13.20;76.40
8103;DHT22;4094;49.948;11.574;2022-10-03T02:04:36;13.20;76.60
8103;DHT22;4094;49.948;11.574;2022-10-03T02:07:16;13.20;76.60
8103;DHT22;4094;49.948;11.574;2022-10-03T02:09:59;13.20;76.60
8103;DHT22;4094;49.948;11.574;2022-10-03T02:12:34;13.20;76.80
8103;DHT22;4094;49.948;11.574;2022-10-03T02:15:10;13.20;76.80
8103;DHT22;4094;49.948;11.574;2022-10-03T02:17:48;13.20;76.90
8103;DHT22;4094;49.948;11.574;2022-10-03T02:20:27;13.20;77.00
8103;DHT22;4094;49.948;11.574;2022-10-03T02:22:58;13.20;77.10
8103;DHT22;4094;49.948;11.574;2022-10-03T02:25:48;13.20;77.10
8103;DHT22;4094;49.948;11.574;2022-10-03T02:28:40;13.20;77.20
8103;DHT22;4094;49.948;11.574;2022-10-03T02:31:49;13.20;77.30
8103;DHT22;4094;49.948;11.574;2022-10-03T02:34:40;13.20;77.30
8103;DHT22;4094;49.948;11.574;2022-10-03T02:37:35;13.20;77.30
8103;DHT22;4094;49.948;11.574;2022-10-03T02:40:40;13.20;77.30
8103;DHT22;4094;49.948;11.574;2022-10-03T02:43:30;13.20;77.30
8103;DHT22;4094;49.948;11.574;2022-10-03T02:46:19;13.20;77.20
8103;DHT22;4094;49.948;11.574;2022-10-03T02:55:22;13.20;77.40
8103;DHT22;4094;49.948;11.574;2022-10-03T02:58:27;13.20;77.40
8103;DHT22;4094;49.948;11.574;2022-10-03T03:07:31;13.20;77.60
8103;DHT22;4094;49.948;11.574;2022-10-03T03:10:30;13.20;77.50
8103;DHT22;4094;49.948;11.574;2022-10-03T03:13:31;13.20;77.50
8103;DHT22;4094;49.948;11.574;2022-10-03T03:19:26;13.20;77.50
8103;DHT22;4094;49.948;11.574;2022-10-03T03:22:04;13.20;77.40
8103;DHT22;4094;49.948;11.574;2022-10-03T03:24:47;13.30;77.40
8103;DHT22;4094;49.948;11.574;2022-10-03T03:27:34;13.30;77.50
8103;DHT22;4094;49.948;11.574;2022-10-03T03:30:10;13.30;77.50
8103;DHT22;4094;49.948;11.574;2022-10-03T03:32:52;13.30;77.40
8103;DHT22;4094;49.948;11.574;2022-10-03T03:35:33;13.30;77.50
8103;DHT22;4094;49.948;11.574;2022-10-03T03:38:16;13.30;77.40
8103;DHT22;4094;49.948;11.574;2022-10-03T03:41:02;13.30;77.40
8103;DHT22;4094;49.948;11.574;2022-10-03T03:46:39;13.30;77.50
8103;DHT22;4094;49.948;11.574;2022-10-03T03:49:29;13.30;77.50
8103;DHT22;4094;49.948;11.574;2022-10-03T03:52:19;13.40;77.60
8103;DHT22;4094;49.948;11.574;2022-10-03T03:55:04;13.40;77.60
8103;DHT22;4094;49.948;11.574;2022-10-03T03:58:04;13.40;77.60
8103;DHT22;4094;49.948;11.574;2022-10-03T04:03:40;13.40;77.70
8103;DHT22;4094;49.948;11.574;2022-10-03T04:06:21;13.40;77.70
8103;DHT22;4094;49.948;11.574;2022-10-03T04:09:06;13.40;77.60
8103;DHT22;4094;49.948;11.574;2022-10-03T04:11:51;13.40;77.60
8103;DHT22;4094;49.948;11.574;2022-10-03T04:14:36;13.40;77.60
8103;DHT22;4094;49.948;11.574;2022-10-03T04:20:34;13.40;77.70
8103;DHT22;4094;49.948;11.574;2022-10-03T04:23:24;13.40;77.70
8103;DHT22;4094;49.948;11.574;2022-10-03T04:26:09;13.50;77.70
8103;DHT22;4094;49.948;11.574;2022-10-03T04:29:03;13.50;77.70
8103;DHT22;4094;49.948;11.574;2022-10-03T04:31:46;13.50;77.70
8103;DHT22;4094;49.948;11.574;2022-10-03T04:34:28;13.50;77.70
8103;DHT22;4094;49.948;11.574;2022-10-03T04:37:19;13.50;77.70
8103;DHT22;4094;49.948;11.574;2022-10-03T04:40:00;13.50;77.70
8103;DHT22;4094;49.948;11.574;2022-10-03T04:42:42;13.50;77.70
8103;DHT22;4094;49.948;11.574;2022-10-03T04:45:31;13.50;77.70
8103;DHT22;4094;49.948;11.574;2022-10-03T04:48:14;13.50;77.80
8103;DHT22;4094;49.948;11.574;2022-10-03T04:50:55;13.50;77.70
8103;DHT22;4094;49.948;11.574;2022-10-03T04:53:39;13.50;77.60
8103;DHT22;4094;49.948;11.574;2022-10-03T04:56:20;13.60;77.70
8103;DHT22;4094;49.948;11.574;2022-10-03T04:58:58;13.60;77.60
8103;DHT22;4094;49.948;11.574;2022-10-03T05:01:44;13.60;78.30
8103;DHT22;4094;49.948;11.574;2022-10-03T05:04:23;13.60;77.50
8103;DHT22;4094;49.948;11.574;2022-10-03T05:07:00;13.60;77.40
8103;DHT22;4094;49.948;11.574;2022-10-03T05:09:39;13.60;77.40
8103;DHT22;4094;49.948;11.574;2022-10-03T05:12:14;13.60;77.30
8103;DHT22;4094;49.948;11.574;2022-10-03T05:14:56;13.60;77.30
8103;DHT22;4094;49.948;11.574;2022-10-03T05:17:35;13.60;77.40
8103;DHT22;4094;49.948;11.574;2022-10-03T05:20:31;13.60;77.40
8103;DHT22;4094;49.948;11.574;2022-10-03T05:23:31;13.60;77.60
8103;DHT22;4094;49.948;11.574;2022-10-03T05:26:08;13.60;77.60
8103;DHT22;4094;49.948;11.574;2022-10-03T05:29:08;13.60;77.60
8103;DHT22;4094;49.948;11.574;2022-10-03T05:31:47;13.60;77.60
8103;DHT22;4094;49.948;11.574;2022-10-03T05:34:27;13.60;77.60
8103;DHT22;4094;49.948;11.574;2022-10-03T05:37:17;13.60;77.60
8103;DHT22;4094;49.948;11.574;2022-10-03T05:39:56;13.60;77.60
8103;DHT22;4094;49.948;11.574;2022-10-03T05:42:43;13.70;77.70
8103;DHT22;4094;49.948;11.574;2022-10-03T05:45:24;13.70;77.80
8103;DHT22;4094;49.948;11.574;2022-10-03T05:48:11;13.70;77.60
8103;DHT22;4094;49.948;11.574;2022-10-03T05:57:01;13.80;77.50
8103;DHT22;4094;49.948;11.574;2022-10-03T06:00:00;13.80;77.50
8103;DHT22;4094;49.948;11.574;2022-10-03T06:05:56;13.80;77.20
8103;DHT22;4094;49.948;11.574;2022-10-03T06:11:58;13.90;77.00
8103;DHT22;4094;49.948;11.574;2022-10-03T06:14:37;13.90;76.90
8103;DHT22;4094;49.948;11.574;2022-10-03T06:17:34;13.90;76.80
8103;DHT22;4094;49.948;11.574;2022-10-03T06:20:20;13.90;76.80
8103;DHT22;4094;49.948;11.574;2022-10-03T06:29:30;13.90;76.90
8103;DHT22;4094;49.948;11.574;2022-10-03T06:32:48;14.00;76.90
8103;DHT22;4094;49.948;11.574;2022-10-03T06:38:48;14.00;77.00
8103;DHT22;4094;49.948;11.574;2022-10-03T06:44:45;14.10;77.20
8103;DHT22;4094;49.948;11.574;2022-10-03T06:47:40;14.10;77.20
8103;DHT22;4094;49.948;11.574;2022-10-03T06:50:25;14.10;77.40
8103;DHT22;4094;49.948;11.574;2022-10-03T06:53:18;14.10;77.10
8103;DHT22;4094;49.948;11.574;2022-10-03T06:59:22;14.20;76.90
8103;DHT22;4094;49.948;11.574;2022-10-03T07:02:19;14.20;76.80
8103;DHT22;4094;49.948;11.574;2022-10-03T07:05:39;14.20;76.70
8103;DHT22;4094;49.948;11.574;2022-10-03T07:08:33;14.30;76.50
8103;DHT22;4094;49.948;11.574;2022-10-03T07:11:23;14.30;76.40
8103;DHT22;4094;49.948;11.574;2022-10-03T07:14:13;14.30;76.20
8103;DHT22;4094;49.948;11.574;2022-10-03T07:17:00;14.40;76.50
8103;DHT22;4094;49.948;11.574;2022-10-03T07:19:55;14.40;76.30
8103;DHT22;4094;49.948;11.574;2022-10-03T07:22:56;14.40;76.20
8103;DHT22;4094;49.948;11.574;2022-10-03T07:32:29;14.60;75.80
8103;DHT22;4094;49.948;11.574;2022-10-03T07:35:29;14.60;75.50
8103;DHT22;4094;49.948;11.574;2022-10-03T07:38:51;14.60;75.40
8103;DHT22;4094;49.948;11.574;2022-10-03T07:41:50;14.70;75.10
8103;DHT22;4094;49.948;11.574;2022-10-03T07:44:57;14.70;75.30
8103;DHT22;4094;49.948;11.574;2022-10-03T07:47:55;14.70;75.20
8103;DHT22;4094;49.948;11.574;2022-10-03T07:50:48;14.70;75.00
8103;DHT22;4094;49.948;11.574;2022-10-03T07:53:56;14.80;75.60
8103;DHT22;4094;49.948;11.574;2022-10-03T07:56:59;14.90;75.70
8103;DHT22;4094;49.948;11.574;2022-10-03T08:12:28;15.90;75.40
8103;DHT22;4094;49.948;11.574;2022-10-03T08:15:12;16.30;75.40
8103;DHT22;4094;49.948;11.574;2022-10-03T08:18:16;16.60;74.40
8103;DHT22;4094;49.948;11.574;2022-10-03T08:20:56;16.70;72.20
8103;DHT22;4094;49.948;11.574;2022-10-03T08:23:49;16.80;71.90
8103;DHT22;4094;49.948;11.574;2022-10-03T08:29:36;16.90;71.30
8103;DHT22;4094;49.948;11.574;2022-10-03T08:32:36;16.90;70.90
8103;DHT22;4094;49.948;11.574;2022-10-03T08:35:31;16.90;71.50
8103;DHT22;4094;49.948;11.574;2022-10-03T08:41:30;16.70;70.20
8103;DHT22;4094;49.948;11.574;2022-10-03T08:44:44;16.60;70.60
8103;DHT22;4094;49.948;11.574;2022-10-03T08:47:37;16.60;70.20
8103;DHT22;4094;49.948;11.574;2022-10-03T08:50:37;16.50;70.90
8103;DHT22;4094;49.948;11.574;2022-10-03T08:56:14;16.50;70.20
8103;DHT22;4094;49.948;11.574;2022-10-03T08:59:08;16.40;70.70
8103;DHT22;4094;49.948;11.574;2022-10-03T09:05:18;16.40;70.10
8103;DHT22;4094;49.948;11.574;2022-10-03T09:08:22;16.50;70.20
8103;DHT22;4094;49.948;11.574;2022-10-03T09:11:34;16.60;70.30
8103;DHT22;4094;49.948;11.574;2022-10-03T09:14:30;16.60;70.60
8103;DHT22;4094;49.948;11.574;2022-10-03T09:17:34;16.70;70.00
8103;DHT22;4094;49.948;11.574;2022-10-03T09:20:51;16.70;70.10
8103;DHT22;4094;49.948;11.574;2022-10-03T09:27:07;16.90;68.20
8103;DHT22;4094;49.948;11.574;2022-10-03T09:30:23;16.90;68.30
8103;DHT22;4094;49.948;11.574;2022-10-03T09:33:21;17.00;68.40
8103;DHT22;4094;49.948;11.574;2022-10-03T09:36:11;17.00;67.80
8103;DHT22;4094;49.948;11.574;2022-10-03T09:42:19;17.10;67.80
8103;DHT22;4094;49.948;11.574;2022-10-03T09:48:42;17.20;66.80
8103;DHT22;4094;49.948;11.574;2022-10-03T09:51:23;17.20;66.80
8103;DHT22;4094;49.948;11.574;2022-10-03T09:54:27;17.30;66.40
8103;DHT22;4094;49.948;11.574;2022-10-03T09:57:24;17.40;65.90
8103;DHT22;4094;49.948;11.574;2022-10-03T10:00:14;17.50;66.00
8103;DHT22;4094;49.948;11.574;2022-10-03T10:06:09;17.60;65.40
8103;DHT22;4094;49.948;11.574;2022-10-03T10:09:16;17.60;64.90
8103;DHT22;4094;49.948;11.574;2022-10-03T10:15:28;17.80;65.30
8103;DHT22;4094;49.948;11.574;2022-10-03T10:18:32;17.90;64.70
8103;DHT22;4094;49.948;11.574;2022-10-03T10:21:36;17.90;65.10
8103;DHT22;4094;49.948;11.574;2022-10-03T10:30:41;18.10;63.40
8103;DHT22;4094;49.948;11.574;2022-10-03T10:37:04;18.20;61.30
8103;DHT22;4094;49.948;11.574;2022-10-03T11:05:27;18.30;60.30
8103;DHT22;4094;49.948;11.574;2022-10-03T11:08:48;18.40;59.60
8103;DHT22;4094;49.948;11.574;2022-10-03T11:11:58;18.50;58.60
8103;DHT22;4094;49.948;11.574;2022-10-03T11:18:17;18.40;58.40
8103;DHT22;4094;49.948;11.574;2022-10-03T11:24:15;18.40;58.20
8103;DHT22;4094;49.948;11.574;2022-10-03T11:27:18;18.40;58.60
8103;DHT22;4094;49.948;11.574;2022-10-03T11:30:07;18.50;58.80
8103;DHT22;4094;49.948;11.574;2022-10-03T11:39:16;18.80;58.50
8103;DHT22;4094;49.948;11.574;2022-10-03T11:41:54;18.90;57.10
8103;DHT22;4094;49.948;11.574;2022-10-03T11:44:26;18.90;57.40
8103;DHT22;4094;49.948;11.574;2022-10-03T11:47:11;18.90;57.50
8103;DHT22;4094;49.948;11.574;2022-10-03T11:50:20;18.90;56.70
8103;DHT22;4094;49.948;11.574;2022-10-03T11:53:04;18.90;56.70
8103;DHT22;4094;49.948;11.574;2022-10-03T11:55:39;18.80;55.90
8103;DHT22;4094;49.948;11.574;2022-10-03T11:58:23;18.70;56.50
8103;DHT22;4094;49.948;11.574;2022-10-03T12:01:00;18.70;56.10
8103;DHT22;4094;49.948;11.574;2022-10-03T12:03:37;18.60;56.50
8103;DHT22;4094;49.948;11.574;2022-10-03T12:06:15;18.60;56.90
8103;DHT22;4094;49.948;11.574;2022-10-03T12:09:16;18.70;56.60
8103;DHT22;4094;49.948;11.574;2022-10-03T12:11:55;18.70;56.40
8103;DHT22;4094;49.948;11.574;2022-10-03T12:14:28;18.80;56.50
8103;DHT22;4094;49.948;11.574;2022-10-03T12:17:04;18.80;56.20
8103;DHT22;4094;49.948;11.574;2022-10-03T12:19:41;18.70;55.70
8103;DHT22;4094;49.948;11.574;2022-10-03T12:22:35;18.80;55.70
8103;DHT22;4094;49.948;11.574;2022-10-03T12:25:18;18.80;55.50
8103;DHT22;4094;49.948;11.574;2022-10-03T12:27:57;18.80;55.70
8103;DHT22;4094;49.948;11.574;2022-10-03T12:30:38;18.90;54.90
8103;DHT22;4094;49.948;11.574;2022-10-03T12:33:21;19.10;55.50
8103;DHT22;4094;49.948;11.574;2022-10-03T12:36:01;19.40;55.00
8103;DHT22;4094;49.948;11.574;2022-10-03T12:38:43;19.60;54.90
8103;DHT22;4094;49.948;11.574;2022-10-03T12:41:29;19.80;54.20
8103;DHT22;4094;49.948;11.574;2022-10-03T12:44:15;19.80;53.80
8103;DHT22;4094;49.948;11.574;2022-10-03T12:46:52;19.80;53.40
8103;DHT22;4094;49.948;11.574;2022-10-03T12:49:49;19.80;53.80
8103;DHT22;4094;49.948;11.574;2022-10-03T12:52:29;19.70;53.80
8103;DHT22;4094;49.948;11.574;2022-10-03T12:55:13;19.70;54.30
8103;DHT22;4094;49.948;11.574;2022-10-03T12:57:51;19.60;54.10
8103;DHT22;4094;49.948;11.574;2022-10-03T13:00:24;19.60;53.90
8103;DHT22;4094;49.948;11.574;2022-10-03T13:03:09;19.50;53.80
8103;DHT22;4094;49.948;11.574;2022-10-03T13:06:00;19.40;54.00
8103;DHT22;4094;49.948;11.574;2022-10-03T13:09:02;19.40;54.00
8103;DHT22;4094;49.948;11.574;2022-10-03T13:11:48;19.40;54.00
8103;DHT22;4094;49.948;11.574;2022-10-03T13:14:36;19.30;53.60
8103;DHT22;4094;49.948;11.574;2022-10-03T13:17:25;19.20;53.80
8103;DHT22;4094;49.948;11.574;2022-10-03T13:20:16;19.20;53.60
8103;DHT22;4094;49.948;11.574;2022-10-03T13:22:57;19.10;53.70
8103;DHT22;4094;49.948;11.574;2022-10-03T13:25:41;19.00;53.90
8103;DHT22;4094;49.948;11.574;2022-10-03T13:28:13;19.00;54.00
8103;DHT22;4094;49.948;11.574;2022-10-03T13:30:47;18.90;54.30
8103;DHT22;4094;49.948;11.574;2022-10-03T13:33:35;18.80;54.50
8103;DHT22;4094;49.948;11.574;2022-10-03T13:36:15;18.80;54.60
8103;DHT22;4094;49.948;11.574;2022-10-03T13:39:02;18.70;54.60
8103;DHT22;4094;49.948;11.574;2022-10-03T13:44:49;18.60;54.60
8103;DHT22;4094;49.948;11.574;2022-10-03T13:47:49;18.50;54.60
8103;DHT22;4094;49.948;11.574;2022-10-03T13:50:26;18.50;54.70
8103;DHT22;4094;49.948;11.574;2022-10-03T13:53:08;18.50;54.90
8103;DHT22;4094;49.948;11.574;2022-10-03T13:55:44;18.40;55.00
8103;DHT22;4094;49.948;11.574;2022-10-03T13:58:34;18.40;55.10
8103;DHT22;4094;49.948;11.574;2022-10-03T14:01:22;18.40;55.30
8103;DHT22;4094;49.948;11.574;2022-10-03T14:04:17;18.30;55.10
8103;DHT22;4094;49.948;11.574;2022-10-03T14:06:56;18.30;55.90
8103;DHT22;4094;49.948;11.574;2022-10-03T14:09:39;18.30;55.30
8103;DHT22;4094;49.948;11.574;2022-10-03T14:12:20;18.30;55.30
8103;DHT22;4094;49.948;11.574;2022-10-03T14:15:19;18.30;56.00
8103;DHT22;4094;49.948;11.574;2022-10-03T14:18:12;18.30;55.20
8103;DHT22;4094;49.948;11.574;2022-10-03T14:24:28;18.40;55.60
8103;DHT22;4094;49.948;11.574;2022-10-03T14:27:12;18.40;56.10
8103;DHT22;4094;49.948;11.574;2022-10-03T14:29:54;18.40;55.90
8103;DHT22;4094;49.948;11.574;2022-10-03T14:32:29;18.40;55.80
8103;DHT22;4094;49.948;11.574;2022-10-03T14:35:26;18.40;55.90
8103;DHT22;4094;49.948;11.574;2022-10-03T14:38:05;18.40;55.60
8103;DHT22;4094;49.948;11.574;2022-10-03T14:40:45;18.40;55.40
8103;DHT22;4094;49.948;11.574;2022-10-03T14:43:29;18.50;55.20
8103;DHT22;4094;49.948;11.574;2022-10-03T14:46:02;18.40;55.30
8103;DHT22;4094;49.948;11.574;2022-10-03T14:48:36;18.40;54.70
8103;DHT22;4094;49.948;11.574;2022-10-03T14:51:22;18.40;54.60
8103;DHT22;4094;49.948;11.574;2022-10-03T14:54:04;18.40;54.70
8103;DHT22;4094;49.948;11.574;2022-10-03T14:56:46;18.30;54.40
8103;DHT22;4094;49.948;11.574;2022-10-03T14:59:26;18.30;54.70
8103;DHT22;4094;49.948;11.574;2022-10-03T15:02:24;18.20;54.60
8103;DHT22;4094;49.948;11.574;2022-10-03T15:05:05;18.20;54.70
8103;DHT22;4094;49.948;11.574;2022-10-03T15:07:50;18.20;54.60
8103;DHT22;4094;49.948;11.574;2022-10-03T15:10:23;18.20;54.90
8103;DHT22;4094;49.948;11.574;2022-10-03T15:13:05;18.10;55.20
8103;DHT22;4094;49.948;11.574;2022-10-03T15:15:48;18.10;55.00
8103;DHT22;4094;49.948;11.574;2022-10-03T15:18:32;18.10;55.00
8103;DHT22;4094;49.948;11.574;2022-10-03T15:21:02;18.10;55.20
8103;DHT22;4094;49.948;11.574;2022-10-03T15:23:37;18.00;55.40
8103;DHT22;4094;49.948;11.574;2022-10-03T15:26:11;18.00;55.60
8103;DHT22;4094;49.948;11.574;2022-10-03T15:28:45;18.00;55.60
8103;DHT22;4094;49.948;11.574;2022-10-03T15:31:25;18.00;55.60
8103;DHT22;4094;49.948;11.574;2022-10-03T15:34:03;17.90;55.50
8103;DHT22;4094;49.948;11.574;2022-10-03T15:36:36;17.90;55.40
8103;DHT22;4094;49.948;11.574;2022-10-03T15:39:24;17.90;55.60
8103;DHT22;4094;49.948;11.574;2022-10-03T15:42:26;17.90;55.40
8103;DHT22;4094;49.948;11.574;2022-10-03T15:45:01;17.80;55.50
8103;DHT22;4094;49.948;11.574;2022-10-03T15:47:33;17.80;55.80
8103;DHT22;4094;49.948;11.574;2022-10-03T15:50:06;17.80;56.00
8103;DHT22;4094;49.948;11.574;2022-10-03T15:52:45;17.70;56.10
8103;DHT22;4094;49.948;11.574;2022-10-03T15:55:18;17.70;56.10
8103;DHT22;4094;49.948;11.574;2022-10-03T15:57:52;17.70;56.10
8103;DHT22;4094;49.948;11.574;2022-10-03T16:00:51;17.60;56.30
8103;DHT22;4094;49.948;11.574;2022-10-03T16:03:27;17.60;56.30
8103;DHT22;4094;49.948;11.574;2022-10-03T16:06:21;17.60;56.30
8103;DHT22;4094;49.948;11.574;2022-10-03T16:08:58;17.60;56.50
8103;DHT22;4094;49.948;11.574;2022-10-03T16:11:33;17.50;56.60
8103;DHT22;4094;49.948;11.574;2022-10-03T16:14:13;17.50;56.90
8103;DHT22;4094;49.948;11.574;2022-10-03T16:16:54;17.50;57.00
8103;DHT22;4094;49.948;11.574;2022-10-03T16:19:29;17.40;57.00
8103;DHT22;4094;49.948;11.574;2022-10-03T16:22:18;17.40;57.10
8103;DHT22;4094;49.948;11.574;2022-10-03T16:24:57;17.40;56.80
8103;DHT22;4094;49.948;11.574;2022-10-03T16:27:31;17.30;56.90
8103;DHT22;4094;49.948;11.574;2022-10-03T16:30:19;17.30;56.90
8103;DHT22;4094;49.948;11.574;2022-10-03T16:33:02;17.30;57.00
8103;DHT22;4094;49.948;11.574;2022-10-03T16:35:35;17.20;57.00
8103;DHT22;4094;49.948;11.574;2022-10-03T16:38:14;17.20;57.10
8103;DHT22;4094;49.948;11.574;2022-10-03T16:40:52;17.20;57.10
8103;DHT22;4094;49.948;11.574;2022-10-03T16:43:23;17.10;57.00
8103;DHT22;4094;49.948;11.574;2022-10-03T16:45:53;17.10;57.00
8103;DHT22;4094;49.948;11.574;2022-10-03T16:48:27;17.10;57.20
8103;DHT22;4094;49.948;11.574;2022-10-03T16:51:18;17.10;57.40
8103;DHT22;4094;49.948;11.574;2022-10-03T16:53:51;17.00;57.50
8103;DHT22;4094;49.948;11.574;2022-10-03T16:56:23;17.00;57.50
8103;DHT22;4094;49.948;11.574;2022-10-03T16:58:55;17.00;57.40
8103;DHT22;4094;49.948;11.574;2022-10-03T17:01:36;16.90;57.40
8103;DHT22;4094;49.948;11.574;2022-10-03T17:04:19;16.90;57.90
8103;DHT22;4094;49.948;11.574;2022-10-03T17:06:50;16.90;58.00
8103;DHT22;4094;49.948;11.574;2022-10-03T17:09:25;16.90;58.00
8103;DHT22;4094;49.948;11.574;2022-10-03T17:11:57;16.90;57.90
8103;DHT22;4094;49.948;11.574;2022-10-03T17:14:32;16.80;57.70
8103;DHT22;4094;49.948;11.574;2022-10-03T17:17:05;16.80;57.80
8103;DHT22;4094;49.948;11.574;2022-10-03T17:19:40;16.80;57.70
8103;DHT22;4094;49.948;11.574;2022-10-03T17:22:14;16.80;58.00
8103;DHT22;4094;49.948;11.574;2022-10-03T17:24:47;16.80;58.20
8103;DHT22;4094;49.948;11.574;2022-10-03T17:27:25;16.70;58.20
8103;DHT22;4094;49.948;11.574;2022-10-03T17:30:00;16.70;58.60
8103;DHT22;4094;49.948;11.574;2022-10-03T17:32:35;16.70;58.70
8103;DHT22;4094;49.948;11.574;2022-10-03T17:35:11;16.70;58.80
8103;DHT22;4094;49.948;11.574;2022-10-03T17:37:58;16.70;58.90
8103;DHT22;4094;49.948;11.574;2022-10-03T17:40:55;16.60;59.00
8103;DHT22;4094;49.948;11.574;2022-10-03T17:43:37;16.60;59.00
8103;DHT22;4094;49.948;11.574;2022-10-03T17:46:15;16.60;59.70
8103;DHT22;4094;49.948;11.574;2022-10-03T17:48:52;16.50;59.20
8103;DHT22;4094;49.948;11.574;2022-10-03T17:51:31;16.50;59.80
8103;DHT22;4094;49.948;11.574;2022-10-03T17:54:04;16.50;59.20
8103;DHT22;4094;49.948;11.574;2022-10-03T17:56:34;16.50;59.30
8103;DHT22;4094;49.948;11.574;2022-10-03T17:59:10;16.50;59.20
8103;DHT22;4094;49.948;11.574;2022-10-03T18:01:41;16.40;59.30
8103;DHT22;4094;49.948;11.574;2022-10-03T18:04:16;16.40;59.30
8103;DHT22;4094;49.948;11.574;2022-10-03T18:06:48;16.40;59.60
8103;DHT22;4094;49.948;11.574;2022-10-03T18:09:27;16.40;59.60
8103;DHT22;4094;49.948;11.574;2022-10-03T18:12:07;16.30;59.70
8103;DHT22;4094;49.948;11.574;2022-10-03T18:14:45;16.30;59.80
8103;DHT22;4094;49.948;11.574;2022-10-03T18:17:26;16.30;60.20
8103;DHT22;4094;49.948;11.574;2022-10-03T18:20:17;16.20;60.40
8103;DHT22;4094;49.948;11.574;2022-10-03T18:22:57;16.20;60.30
8103;DHT22;4094;49.948;11.574;2022-10-03T18:25:30;16.20;61.10
8103;DHT22;4094;49.948;11.574;2022-10-03T18:28:43;16.20;60.40
8103;DHT22;4094;49.948;11.574;2022-10-03T18:31:16;16.10;60.40
8103;DHT22;4094;49.948;11.574;2022-10-03T18:33:51;16.10;60.40
8103;DHT22;4094;49.948;11.574;2022-10-03T18:36:23;16.10;60.60
8103;DHT22;4094;49.948;11.574;2022-10-03T18:38:58;16.10;60.60
8103;DHT22;4094;49.948;11.574;2022-10-03T18:41:27;16.00;60.80
8103;DHT22;4094;49.948;11.574;2022-10-03T18:43:58;16.00;60.70
8103;DHT22;4094;49.948;11.574;2022-10-03T18:46:32;15.90;60.90
8103;DHT22;4094;49.948;11.574;2022-10-03T18:49:09;15.90;61.00
8103;DHT22;4094;49.948;11.574;2022-10-03T18:52:08;15.80;61.20
8103;DHT22;4094;49.948;11.574;2022-10-03T18:54:49;15.80;61.30
8103;DHT22;4094;49.948;11.574;2022-10-03T18:57:25;15.70;61.50
8103;DHT22;4094;49.948;11.574;2022-10-03T19:00:02;15.70;61.70
8103;DHT22;4094;49.948;11.574;2022-10-03T19:02:37;15.70;61.90
8103;DHT22;4094;49.948;11.574;2022-10-03T19:05:12;15.60;61.90
8103;DHT22;4094;49.948;11.574;2022-10-03T19:07:47;15.60;62.20
8103;DHT22;4094;49.948;11.574;2022-10-03T19:10:28;15.50;62.30
8103;DHT22;4094;49.948;11.574;2022-10-03T19:13:07;15.50;62.60
8103;DHT22;4094;49.948;11.574;2022-10-03T19:15:47;15.40;62.60
8103;DHT22;4094;49.948;11.574;2022-10-03T19:18:20;15.40;62.60
8103;DHT22;4094;49.948;11.574;2022-10-03T19:20:53;15.40;62.80
8103;DHT22;4094;49.948;11.574;2022-10-03T19:23:25;15.30;62.90
8103;DHT22;4094;49.948;11.574;2022-10-03T19:26:01;15.30;63.10
8103;DHT22;4094;49.948;11.574;2022-10-03T19:28:35;15.20;63.40
8103;DHT22;4094;49.948;11.574;2022-10-03T19:31:13;15.20;63.50
8103;DHT22;4094;49.948;11.574;2022-10-03T19:33:45;15.20;63.60
8103;DHT22;4094;49.948;11.574;2022-10-03T19:36:20;15.10;63.60
8103;DHT22;4094;49.948;11.574;2022-10-03T19:38:50;15.10;63.80
8103;DHT22;4094;49.948;11.574;2022-10-03T19:41:26;15.00;63.90
8103;DHT22;4094;49.948;11.574;2022-10-03T19:44:01;15.00;64.00
8103;DHT22;4094;49.948;11.574;2022-10-03T19:46:42;15.00;64.20
8103;DHT22;4094;49.948;11.574;2022-10-03T19:49:26;14.90;64.30
8103;DHT22;4094;49.948;11.574;2022-10-03T19:52:14;14.90;64.40
8103;DHT22;4094;49.948;11.574;2022-10-03T19:54:51;14.90;64.60
8103;DHT22;4094;49.948;11.574;2022-10-03T19:57:25;14.80;64.60
8103;DHT22;4094;49.948;11.574;2022-10-03T19:59:57;14.80;64.80
8103;DHT22;4094;49.948;11.574;2022-10-03T20:02:38;14.70;64.80
8103;DHT22;4094;49.948;11.574;2022-10-03T20:05:31;14.70;65.20
8103;DHT22;4094;49.948;11.574;2022-10-03T20:11:19;14.60;65.00
8103;DHT22;4094;49.948;11.574;2022-10-03T20:13:54;14.60;65.20
8103;DHT22;4094;49.948;11.574;2022-10-03T20:16:25;14.60;65.20
8103;DHT22;4094;49.948;11.574;2022-10-03T20:19:04;14.50;65.20
8103;DHT22;4094;49.948;11.574;2022-10-03T20:21:34;14.50;65.50
8103;DHT22;4094;49.948;11.574;2022-10-03T20:24:08;14.40;65.50
8103;DHT22;4094;49.948;11.574;2022-10-03T20:26:46;14.40;65.60
8103;DHT22;4094;49.948;11.574;2022-10-03T20:29:23;14.40;65.70